Time;durP1;ratioP1;P1;durP2;ratioP2;P2;SDS_P1;SDS_P2;PMS_P1;PMS_P2;Temp;Humidity;BMP_temperature;BMP_pressure;BME280_temperature;BME280_humidity;BME280_pressure;Samples;Min_cycle;Max_cycle;Signal;HPM_P1;HPM_P2
2023/12/01 00:02:13;;;;;;;203.90;192.60;;;-0.70;99.90;;;;;;5090620;28;20561;-75
2023/12/01 00:04:39;;;;;;;161.57;151.95;;;-0.70;99.90;;;;;;5080404;28;20070;-75
2023/12/01 00:07:05;;;;;;;184.23;173.83;;;-0.70;99.90;;;;;;5101207;28;20032;-75
2023/12/01 00:09:32;;;;;;;219.67;207.77;;;-0.70;99.90;;;;;;5067126;28;20048;-75
2023/12/01 00:11:57;;;;;;;197.80;186.30;;;-0.80;99.90;;;;;;5068949;28;20143;-75
2023/12/01 00:14:23;;;;;;;193.53;183.10;;;-0.80;99.90;;;;;;5073605;28;20413;-75
2023/12/01 00:16:49;;;;;;;183.70;173.20;;;-0.80;99.90;;;;;;5066077;28;20668;-75
2023/12/01 00:19:15;;;;;;;198.03;186.70;;;-0.80;99.90;;;;;;5077510;28;20140;-75
2023/12/01 00:21:40;;;;;;;182.30;171.53;;;-0.80;99.90;;;;;;5074292;28;20044;-75
2023/12/01 00:24:06;;;;;;;229.70;217.17;;;-0.80;99.90;;;;;;5053047;28;20044;-75
2023/12/01 00:26:32;;;;;;;166.37;156.73;;;-0.80;99.90;;;;;;5084487;28;20028;-75
2023/12/01 00:28:58;;;;;;;149.70;140.83;;;-0.80;99.90;;;;;;5087437;28;20055;-75
2023/12/01 00:31:24;;;;;;;181.25;170.98;;;-0.80;99.90;;;;;;5053484;28;20559;-75
2023/12/01 00:33:51;;;;;;;211.13;199.25;;;-0.80;99.90;;;;;;5055356;28;20068;-75
2023/12/01 00:36:17;;;;;;;154.77;145.43;;;-0.80;99.90;;;;;;5085281;28;20040;-75
2023/12/01 00:38:43;;;;;;;193.77;183.27;;;-0.80;99.90;;;;;;5074028;28;20044;-75
2023/12/01 00:41:08;;;;;;;152.80;143.80;;;-0.80;99.90;;;;;;5060334;28;20101;-75
2023/12/01 00:43:35;;;;;;;182.33;172.23;;;-0.80;99.90;;;;;;5050937;28;20037;-75
2023/12/01 00:46:00;;;;;;;195.18;184.48;;;-0.80;99.90;;;;;;5091611;28;20392;-75
2023/12/01 00:48:27;;;;;;;175.10;165.50;;;-0.80;99.90;;;;;;5078249;28;20063;-75
2023/12/01 00:50:53;;;;;;;152.85;143.77;;;-0.80;99.90;;;;;;5089790;28;20040;-75
2023/12/01 00:53:18;;;;;;;191.13;180.80;;;-0.80;99.90;;;;;;5082844;28;20037;-74
2023/12/01 00:55:44;;;;;;;188.87;177.83;;;-0.80;99.90;;;;;;5037157;28;20036;-73
2023/12/01 00:58:10;;;;;;;151.70;142.97;;;-0.80;99.90;;;;;;5055708;28;20036;-74
2023/12/01 01:00:36;;;;;;;199.23;188.67;;;-0.80;99.90;;;;;;5062060;28;20496;-75
2023/12/01 01:03:04;;;;;;;165.20;155.65;;;-0.80;99.90;;;;;;5067601;28;20033;-75
2023/12/01 01:05:30;;;;;;;189.00;178.53;;;-0.80;99.90;;;;;;5054805;28;20494;-75
2023/12/01 01:07:56;;;;;;;153.53;144.53;;;-0.80;99.90;;;;;;5072410;28;20040;-75
2023/12/01 01:10:21;;;;;;;190.83;180.47;;;-0.80;99.90;;;;;;5067179;28;20508;-75
2023/12/01 01:12:47;;;;;;;184.37;173.90;;;-0.80;99.90;;;;;;5071629;28;20177;-75
2023/12/01 01:15:13;;;;;;;175.57;165.60;;;-0.70;99.90;;;;;;5097948;28;20040;-75
2023/12/01 01:17:39;;;;;;;205.48;194.23;;;-0.70;99.90;;;;;;5066897;28;20174;-75
2023/12/01 01:20:05;;;;;;;202.57;191.47;;;-0.70;99.90;;;;;;5045671;28;20132;-75
2023/12/01 01:22:31;;;;;;;196.65;186.02;;;-0.70;99.90;;;;;;5073843;28;20137;-75
2023/12/01 01:24:57;;;;;;;151.70;142.53;;;-0.70;99.90;;;;;;5050376;28;20491;-75
2023/12/01 01:27:25;;;;;;;201.73;190.23;;;-0.80;99.90;;;;;;5066291;28;20036;-75
2023/12/01 01:29:51;;;;;;;171.83;161.63;;;-0.70;99.90;;;;;;5068843;28;20036;-75
2023/12/01 01:32:16;;;;;;;178.47;168.23;;;-0.70;99.90;;;;;;5067513;28;20036;-75
2023/12/01 01:34:42;;;;;;;188.17;177.23;;;-0.70;99.90;;;;;;5061742;28;20523;-74
2023/12/01 01:37:08;;;;;;;195.70;184.57;;;-0.70;99.90;;;;;;5062587;28;20044;-74
2023/12/01 01:39:34;;;;;;;187.83;177.17;;;-0.70;99.90;;;;;;5073939;28;20044;-75
2023/12/01 01:42:00;;;;;;;202.98;191.30;;;-0.70;99.90;;;;;;5071469;28;20404;-75
2023/12/01 01:44:26;;;;;;;206.67;195.60;;;-0.80;99.90;;;;;;5082367;28;20047;-75
2023/12/01 01:46:53;;;;;;;192.20;181.35;;;-0.80;99.90;;;;;;5068661;28;20049;-75
2023/12/01 01:49:25;;;;;;;169.48;159.82;;;-0.80;99.90;;;;;;5051935;28;20146;-75
2023/12/01 01:51:54;;;;;;;172.23;162.43;;;-0.80;99.90;;;;;;5082619;28;20037;-75
2023/12/01 01:54:23;;;;;;;153.63;144.68;;;-0.80;99.90;;;;;;5070203;28;20417;-75
2023/12/01 01:56:51;;;;;;;146.05;136.90;;;-0.80;99.90;;;;;;5084255;28;20124;-75
2023/12/01 01:59:21;;;;;;;182.77;172.30;;;-0.80;99.90;;;;;;5065320;28;20033;-75
2023/12/01 02:01:51;;;;;;;178.95;168.57;;;-0.80;99.90;;;;;;5071034;28;20079;-74
2023/12/01 02:04:17;;;;;;;196.38;185.38;;;-0.80;99.90;;;;;;5066883;28;20037;-75
2023/12/01 02:06:46;;;;;;;183.43;172.90;;;-0.80;99.90;;;;;;5069890;28;20412;-75
2023/12/01 02:09:15;;;;;;;184.73;173.75;;;-0.80;99.90;;;;;;5080165;28;20475;-74
2023/12/01 02:11:42;;;;;;;203.57;192.10;;;-0.80;99.90;;;;;;5087623;28;20036;-75
2023/12/01 02:14:08;;;;;;;201.20;189.88;;;-0.80;99.90;;;;;;5064326;28;20033;-74
2023/12/01 02:16:34;;;;;;;203.87;192.93;;;-0.80;99.90;;;;;;5078315;28;20101;-75
2023/12/01 02:18:59;;;;;;;188.33;177.70;;;-0.80;99.90;;;;;;5052312;28;20060;-75
2023/12/01 02:21:32;;;;;;;211.73;200.43;;;-0.80;99.90;;;;;;5070664;28;20123;-75
2023/12/01 02:23:59;;;;;;;143.32;134.88;;;-0.80;99.90;;;;;;5069298;28;20461;-75
2023/12/01 02:26:25;;;;;;;158.07;149.15;;;-0.90;99.90;;;;;;5068050;28;20071;-75
2023/12/01 02:28:50;;;;;;;131.00;122.83;;;-0.90;99.90;;;;;;5099532;28;20036;-75
2023/12/01 02:31:16;;;;;;;117.13;109.97;;;-0.90;99.90;;;;;;5069693;28;20109;-75
2023/12/01 02:33:42;;;;;;;95.90;88.87;;;-0.90;99.90;;;;;;5102814;27;20044;-75
2023/12/01 02:36:11;;;;;;;127.10;119.27;;;-0.90;99.90;;;;;;5110028;27;20414;-75
2023/12/01 02:38:36;;;;;;;130.65;122.55;;;-0.90;99.90;;;;;;5077008;28;20075;-75
2023/12/01 02:41:02;;;;;;;180.47;170.07;;;-0.90;99.90;;;;;;5087444;28;20082;-75
2023/12/01 02:43:28;;;;;;;184.47;173.73;;;-0.90;99.90;;;;;;5078794;28;20742;-75
2023/12/01 02:45:55;;;;;;;131.02;122.43;;;-0.90;99.90;;;;;;5079588;28;20554;-75
2023/12/01 02:48:21;;;;;;;182.68;172.43;;;-0.90;99.90;;;;;;5064006;28;20387;-75
2023/12/01 02:50:47;;;;;;;156.43;146.95;;;-0.90;99.90;;;;;;5079435;28;20036;-75
2023/12/01 02:53:15;;;;;;;131.07;122.77;;;-0.90;99.90;;;;;;5096511;28;20446;-75
2023/12/01 02:55:42;;;;;;;146.55;137.10;;;-1.00;99.90;;;;;;5057796;28;20044;-75
2023/12/01 02:58:08;;;;;;;133.93;125.47;;;-1.00;99.90;;;;;;5086995;28;20048;-75
2023/12/01 03:00:35;;;;;;;159.03;149.33;;;-1.00;99.90;;;;;;5056161;28;20125;-74
2023/12/01 03:03:00;;;;;;;127.32;118.90;;;-1.00;99.90;;;;;;5069022;28;20418;-75
2023/12/01 03:05:26;;;;;;;148.63;139.63;;;-1.00;99.90;;;;;;5053762;28;20147;-75
2023/12/01 03:07:52;;;;;;;149.07;139.73;;;-1.00;99.90;;;;;;5092578;28;20029;-75
2023/12/01 03:10:18;;;;;;;106.70;99.30;;;-1.10;99.90;;;;;;5053263;28;20043;-75
2023/12/01 03:12:44;;;;;;;132.27;124.10;;;-1.10;99.90;;;;;;5063591;28;20055;-75
2023/12/01 03:15:17;;;;;;;93.13;86.18;;;-1.10;99.90;;;;;;5066735;28;20040;-75
2023/12/01 03:17:43;;;;;;;106.80;99.72;;;-1.10;99.90;;;;;;5088347;28;20040;-75
2023/12/01 03:20:10;;;;;;;104.17;97.10;;;-1.20;99.90;;;;;;5071982;28;20063;-75
2023/12/01 03:22:38;;;;;;;104.07;96.63;;;-1.20;99.90;;;;;;5069159;28;20036;-75
2023/12/01 03:25:09;;;;;;;120.13;112.22;;;-1.30;99.90;;;;;;5068602;28;20115;-75
2023/12/01 03:27:39;;;;;;;87.97;81.22;;;-1.30;99.90;;;;;;5053202;28;20037;-75
2023/12/01 03:30:13;;;;;;;94.28;87.68;;;-1.40;99.90;;;;;;5057586;28;20171;-75
2023/12/01 03:32:50;;;;;;;87.45;80.93;;;-1.50;99.90;;;;;;5087551;28;20781;-75
2023/12/01 03:35:18;;;;;;;74.80;68.53;;;-1.60;99.90;;;;;;5052323;28;20185;-75
2023/12/01 03:37:45;;;;;;;68.25;62.20;;;-1.70;99.90;;;;;;5111673;27;20040;-75
2023/12/01 03:40:12;;;;;;;81.65;75.50;;;-1.70;99.90;;;;;;5070454;28;20129;-75
2023/12/01 03:42:43;;;;;;;89.72;83.28;;;-1.70;99.90;;;;;;5075404;28;20148;-75
2023/12/01 03:45:13;;;;;;;79.18;73.00;;;-1.70;99.90;;;;;;5071654;28;20479;-75
2023/12/01 03:47:44;;;;;;;69.63;63.60;;;-1.80;99.90;;;;;;5057983;28;20402;-75
2023/12/01 03:50:13;;;;;;;66.10;60.35;;;-1.80;99.90;;;;;;5069390;28;20080;-75
2023/12/01 03:52:44;;;;;;;69.78;63.80;;;-1.80;99.90;;;;;;5086047;28;20444;-75
2023/12/01 03:55:10;;;;;;;58.30;52.88;;;-1.80;99.90;;;;;;5102039;28;20700;-75
2023/12/01 03:57:37;;;;;;;57.22;52.00;;;-1.90;99.90;;;;;;5055524;28;20049;-76
2023/12/01 04:00:07;;;;;;;74.85;69.00;;;-1.90;99.90;;;;;;5072578;28;20092;-76
2023/12/01 04:02:36;;;;;;;77.55;71.50;;;-2.00;99.90;;;;;;5068674;28;20080;-75
2023/12/01 04:05:02;;;;;;;71.35;65.82;;;-2.10;99.90;;;;;;5067175;28;20040;-75
2023/12/01 04:07:28;;;;;;;65.50;59.92;;;-2.20;99.90;;;;;;5088957;28;20127;-76
2023/12/01 04:09:54;;;;;;;61.53;55.70;;;-2.30;99.90;;;;;;5065430;28;20049;-75
2023/12/01 04:12:19;;;;;;;73.70;67.73;;;-2.30;99.90;;;;;;5068337;28;20086;-76
2023/12/01 04:14:45;;;;;;;76.07;69.90;;;-2.30;99.90;;;;;;5093165;28;20040;-76
2023/12/01 04:17:13;;;;;;;82.78;76.70;;;-2.40;99.90;;;;;;5051619;28;20178;-76
2023/12/01 04:19:39;;;;;;;86.40;79.97;;;-2.40;99.90;;;;;;5104367;28;20431;-75
2023/12/01 04:22:07;;;;;;;70.33;64.30;;;-2.40;99.90;;;;;;5073040;28;20473;-76
2023/12/01 04:24:34;;;;;;;61.42;56.05;;;-2.50;99.90;;;;;;5101805;27;20364;-76
2023/12/01 04:27:04;;;;;;;74.82;69.00;;;-2.60;99.90;;;;;;5102598;27;20118;-76
2023/12/01 04:29:30;;;;;;;61.55;56.20;;;-2.70;99.90;;;;;;5070945;28;20048;-76
2023/12/01 04:31:57;;;;;;;59.88;54.38;;;-2.70;99.90;;;;;;5101323;27;20454;-77
2023/12/01 04:34:26;;;;;;;59.22;53.72;;;-2.80;99.90;;;;;;5073311;28;20071;-76
2023/12/01 04:36:52;;;;;;;69.25;63.05;;;-2.90;99.90;;;;;;5065523;28;20040;-76
2023/12/01 04:39:18;;;;;;;62.90;57.70;;;-3.00;99.90;;;;;;5082169;28;20134;-76
2023/12/01 04:41:44;;;;;;;66.43;60.83;;;-3.00;99.90;;;;;;5071197;28;20063;-76
2023/12/01 04:44:10;;;;;;;56.40;51.17;;;-3.00;99.90;;;;;;5114615;27;20657;-76
2023/12/01 04:46:35;;;;;;;75.63;69.13;;;-3.10;99.90;;;;;;5078881;28;20519;-76
2023/12/01 04:49:01;;;;;;;68.17;62.23;;;-3.20;99.90;;;;;;5076868;28;20103;-77
2023/12/01 04:51:27;;;;;;;64.50;58.67;;;-3.30;99.90;;;;;;5092923;28;20047;-77
2023/12/01 04:53:53;;;;;;;74.90;68.80;;;-3.30;99.90;;;;;;5062309;28;20039;-76
2023/12/01 04:56:18;;;;;;;58.77;53.23;;;-3.40;99.90;;;;;;5070567;28;20131;-77
2023/12/01 04:58:45;;;;;;;68.40;62.03;;;-3.40;99.90;;;;;;5050698;28;20076;-76
2023/12/01 05:01:11;;;;;;;61.92;56.03;;;-3.40;99.90;;;;;;5068348;28;20040;-77
2023/12/01 05:03:36;;;;;;;48.30;43.43;;;-3.50;99.90;;;;;;5056093;28;20046;-77
2023/12/01 05:06:02;;;;;;;54.03;48.63;;;-3.50;99.90;;;;;;5105358;27;20036;-77
2023/12/01 05:08:28;;;;;;;50.77;45.53;;;-3.60;99.90;;;;;;5071840;28;20045;-76
2023/12/01 05:10:56;;;;;;;53.27;47.90;;;-3.60;99.90;;;;;;5080668;28;20047;-77
2023/12/01 05:13:21;;;;;;;57.38;51.63;;;-3.60;99.90;;;;;;5091222;28;20067;-77
2023/12/01 05:15:47;;;;;;;50.03;45.27;;;-3.70;99.90;;;;;;5053783;28;20036;-77
2023/12/01 05:18:13;;;;;;;43.40;36.50;;;-3.80;99.90;;;;;;5091920;28;20105;-76
2023/12/01 05:20:39;;;;;;;48.47;43.53;;;-3.80;99.90;;;;;;5091851;28;20049;-76
2023/12/01 05:23:09;;;;;;;47.45;41.80;;;-3.90;99.90;;;;;;5067295;28;20028;-77
2023/12/01 05:25:37;;;;;;;45.03;40.08;;;-3.90;99.90;;;;;;5066806;28;20037;-77
2023/12/01 05:28:05;;;;;;;49.35;44.15;;;-3.90;99.90;;;;;;5068347;28;20134;-76
2023/12/01 05:30:36;;;;;;;50.58;45.92;;;-3.90;99.90;;;;;;5104255;28;20051;-76
2023/12/01 05:33:06;;;;;;;45.30;40.63;;;-3.90;99.90;;;;;;5050345;28;20040;-76
2023/12/01 05:35:35;;;;;;;45.58;36.33;;;-4.00;99.90;;;;;;5073194;28;20051;-77
2023/12/01 05:38:01;;;;;;;44.22;32.75;;;-4.00;99.90;;;;;;5078721;28;20052;-77
2023/12/01 05:40:39;;;;;;;38.57;32.30;;;-4.10;99.90;;;;;;5075745;28;20048;-76
2023/12/01 05:43:06;;;;;;;40.03;32.33;;;-4.10;99.90;;;;;;5068423;28;20286;-76
2023/12/01 05:45:33;;;;;;;43.20;32.15;;;-4.20;99.90;;;;;;5076365;28;20040;-76
2023/12/01 05:47:59;;;;;;;40.03;31.85;;;-4.20;99.90;;;;;;5076941;28;20127;-76
2023/12/01 05:50:30;;;;;;;44.50;37.80;;;-4.20;99.90;;;;;;5097575;28;20043;-76
2023/12/01 05:52:58;;;;;;;44.50;38.53;;;-4.30;99.90;;;;;;5055519;28;20076;-76
2023/12/01 05:55:29;;;;;;;48.50;43.75;;;-4.30;99.90;;;;;;5069443;28;20040;-76
2023/12/01 05:58:10;;;;;;;52.83;47.97;;;-4.40;99.90;;;;;;5053594;28;20492;-76
2023/12/01 06:00:36;;;;;;;52.95;47.72;;;-4.40;99.90;;;;;;5078413;28;20064;-76
2023/12/01 06:03:10;;;;;;;51.92;46.70;;;-4.40;99.90;;;;;;5049000;28;20036;-76
2023/12/01 06:05:37;;;;;;;53.80;48.88;;;-4.40;99.90;;;;;;5070646;28;20435;-76
2023/12/01 06:08:03;;;;;;;58.30;52.83;;;-4.50;99.90;;;;;;5075620;28;20037;-76
2023/12/01 06:10:31;;;;;;;43.58;37.58;;;-4.50;99.90;;;;;;5075689;28;20050;-76
2023/12/01 06:12:58;;;;;;;46.20;40.08;;;-4.60;99.90;;;;;;5072043;28;20071;-76
2023/12/01 06:15:29;;;;;;;40.30;32.25;;;-4.60;99.90;;;;;;5077907;28;20051;-75
2023/12/01 06:17:56;;;;;;;41.53;28.10;;;-4.60;99.90;;;;;;5077853;28;20045;-75
2023/12/01 06:20:22;;;;;;;47.28;40.55;;;-4.70;99.90;;;;;;5078428;28;20052;-75
2023/12/01 06:22:52;;;;;;;62.03;56.30;;;-4.70;99.90;;;;;;5074922;28;20040;-75
2023/12/01 06:25:20;;;;;;;43.45;35.65;;;-4.80;99.90;;;;;;5086842;28;20392;-75
2023/12/01 06:27:46;;;;;;;45.53;39.60;;;-4.80;99.90;;;;;;5070938;28;20089;-74
2023/12/01 06:30:14;;;;;;;48.60;43.67;;;-4.80;99.90;;;;;;5062968;28;20041;-73
2023/12/01 06:32:41;;;;;;;44.70;39.97;;;-4.80;99.90;;;;;;5051989;28;20040;-74
2023/12/01 06:35:12;;;;;;;45.00;39.70;;;-4.90;99.90;;;;;;5071697;28;20044;-73
2023/12/01 06:37:39;;;;;;;43.60;35.00;;;-4.90;99.90;;;;;;5069428;28;20127;-73
2023/12/01 06:40:12;;;;;;;42.92;35.88;;;-4.80;99.90;;;;;;5094058;27;20827;-73
2023/12/01 06:42:42;;;;;;;44.42;38.88;;;-4.80;99.90;;;;;;5092717;28;20041;-73
2023/12/01 06:45:12;;;;;;;46.35;40.33;;;-4.90;99.90;;;;;;5089566;28;20120;-74
2023/12/01 06:47:46;;;;;;;49.38;36.22;;;-4.90;99.90;;;;;;5069174;28;20412;-73
2023/12/01 06:50:15;;;;;;;50.72;44.40;;;-4.90;99.90;;;;;;5097042;28;20044;-73
2023/12/01 06:52:43;;;;;;;46.72;38.53;;;-4.90;99.90;;;;;;5067627;28;20040;-73
2023/12/01 06:55:09;;;;;;;45.33;37.20;;;-4.90;99.90;;;;;;5095593;28;20046;-73
2023/12/01 06:57:38;;;;;;;50.40;41.72;;;-4.90;99.90;;;;;;5067515;28;20049;-74
2023/12/01 07:00:08;;;;;;;47.05;38.00;;;-4.90;99.90;;;;;;5107137;27;20040;-73
2023/12/01 07:02:37;;;;;;;40.10;30.63;;;-4.90;99.90;;;;;;5071091;28;20043;-73
2023/12/01 07:05:08;;;;;;;41.58;35.03;;;-4.90;99.90;;;;;;5052012;28;20546;-73
2023/12/01 07:07:37;;;;;;;46.08;35.95;;;-4.90;99.90;;;;;;5081260;28;20092;-72
2023/12/01 07:10:05;;;;;;;43.78;36.95;;;-4.80;99.90;;;;;;5101744;27;20043;-73
2023/12/01 07:12:30;;;;;;;50.55;40.92;;;-4.80;99.90;;;;;;5051836;28;20044;-73
2023/12/01 07:14:56;;;;;;;49.27;36.50;;;-4.80;99.90;;;;;;5104429;27;20039;-73
2023/12/01 07:17:22;;;;;;;46.17;35.37;;;-4.70;99.90;;;;;;5054244;28;20047;-76
2023/12/01 07:19:48;;;;;;;42.80;31.53;;;-4.70;99.90;;;;;;5078324;28;20057;-75
2023/12/01 07:22:14;;;;;;;45.80;32.53;;;-4.70;99.90;;;;;;5094619;27;20486;-72
2023/12/01 07:24:41;;;;;;;42.53;29.67;;;-4.70;99.90;;;;;;5104164;27;20131;-72
2023/12/01 07:27:09;;;;;;;46.05;40.88;;;-4.60;99.90;;;;;;5104920;27;20056;-73
2023/12/01 07:29:40;;;;;;;47.00;38.33;;;-4.70;99.90;;;;;;5091623;28;20056;-73
2023/12/01 07:32:07;;;;;;;42.95;32.72;;;-4.70;99.90;;;;;;5104929;27;20062;-73
2023/12/01 07:34:33;;;;;;;46.08;34.20;;;-4.80;99.90;;;;;;5075816;28;20087;-72
2023/12/01 07:36:58;;;;;;;44.80;33.10;;;-4.80;99.90;;;;;;5071428;28;20149;-73
2023/12/01 07:39:24;;;;;;;51.20;32.47;;;-4.80;99.90;;;;;;5061593;28;20059;-72
2023/12/01 07:41:50;;;;;;;47.53;33.37;;;-4.80;99.90;;;;;;5069689;28;20044;-72
2023/12/01 07:44:16;;;;;;;42.93;31.20;;;-4.80;99.90;;;;;;5103558;27;20129;-75
2023/12/01 07:46:41;;;;;;;47.17;35.10;;;-4.80;99.90;;;;;;5073585;28;20068;-72
2023/12/01 07:49:11;;;;;;;44.90;33.43;;;-4.80;99.90;;;;;;5112475;27;20036;-72
2023/12/01 07:51:38;;;;;;;47.47;35.85;;;-4.90;99.90;;;;;;5069347;28;20044;-72
2023/12/01 07:54:04;;;;;;;46.13;34.17;;;-4.80;99.90;;;;;;5072992;28;20404;-72
2023/12/01 07:56:29;;;;;;;53.40;41.72;;;-4.80;99.90;;;;;;5100778;27;20459;-72
2023/12/01 07:58:55;;;;;;;47.10;31.37;;;-4.90;99.90;;;;;;5061901;28;20109;-72
2023/12/01 08:01:22;;;;;;;46.83;28.63;;;-4.80;99.90;;;;;;5058602;28;20043;-72
2023/12/01 08:03:48;;;;;;;47.88;35.03;;;-4.80;99.90;;;;;;5091186;28;20119;-72
2023/12/01 08:06:14;;;;;;;48.57;36.23;;;-4.70;99.90;;;;;;5053148;28;20119;-72
2023/12/01 08:08:41;;;;;;;59.47;48.87;;;-4.70;99.90;;;;;;5086014;28;20424;-72
2023/12/01 08:11:07;;;;;;;55.10;46.03;;;-4.70;99.90;;;;;;5073663;28;20084;-72
2023/12/01 08:13:33;;;;;;;47.85;38.70;;;-4.70;99.90;;;;;;5051152;28;20071;-72
2023/12/01 08:15:59;;;;;;;50.13;36.27;;;-4.70;99.90;;;;;;5068906;28;20040;-72
2023/12/01 08:18:25;;;;;;;57.75;51.17;;;-4.60;99.90;;;;;;5092849;28;20040;-72
2023/12/01 08:20:51;;;;;;;48.42;40.03;;;-4.60;99.90;;;;;;5104973;28;20044;-72
2023/12/01 08:23:17;;;;;;;49.63;36.87;;;-4.40;99.90;;;;;;5080044;28;20044;-72
2023/12/01 08:25:43;;;;;;;52.92;42.70;;;-4.30;99.90;;;;;;5070540;28;20036;-72
2023/12/01 08:28:09;;;;;;;52.27;42.77;;;-4.20;99.90;;;;;;5072051;28;20483;-73
2023/12/01 08:30:36;;;;;;;55.80;49.45;;;-4.10;99.90;;;;;;5073100;28;20071;-72
2023/12/01 08:33:03;;;;;;;56.78;49.33;;;-4.10;99.90;;;;;;5071734;28;20036;-74
2023/12/01 08:35:28;;;;;;;52.63;44.15;;;-4.00;99.90;;;;;;5063666;28;20150;-72
2023/12/01 08:37:54;;;;;;;58.27;52.07;;;-3.90;99.90;;;;;;5072336;28;20044;-72
2023/12/01 08:40:20;;;;;;;54.97;49.17;;;-3.80;99.90;;;;;;5075809;28;20127;-72
2023/12/01 08:42:46;;;;;;;62.57;55.53;;;-3.70;99.90;;;;;;5061701;28;20043;-72
2023/12/01 08:45:11;;;;;;;101.43;93.53;;;-3.50;99.90;;;;;;5110192;27;20392;-71
2023/12/01 08:47:38;;;;;;;55.23;48.37;;;-3.40;99.90;;;;;;5083354;28;20066;-72
2023/12/01 08:50:04;;;;;;;59.70;53.72;;;-3.40;99.90;;;;;;5073616;28;20044;-72
2023/12/01 08:52:30;;;;;;;60.83;54.58;;;-3.40;99.90;;;;;;5092040;28;20162;-71
2023/12/01 08:54:56;;;;;;;51.27;45.73;;;-3.40;99.90;;;;;;5071666;28;20063;-72
2023/12/01 08:57:22;;;;;;;56.97;51.37;;;-3.40;99.90;;;;;;5078312;28;20071;-72
2023/12/01 08:59:49;;;;;;;58.80;53.22;;;-3.40;99.90;;;;;;5074505;28;20040;-72
2023/12/01 09:02:14;;;;;;;65.82;59.58;;;-3.40;99.90;;;;;;5052147;28;20032;-73
2023/12/01 09:04:40;;;;;;;67.50;60.97;;;-3.40;99.90;;;;;;5056465;28;20032;-72
2023/12/01 09:07:06;;;;;;;64.63;58.80;;;-3.40;99.90;;;;;;5058997;28;20040;-72
2023/12/01 09:09:31;;;;;;;50.13;44.30;;;-3.30;99.90;;;;;;5073002;28;20044;-73
2023/12/01 09:11:57;;;;;;;63.93;57.83;;;-3.30;99.90;;;;;;5101708;27;20052;-72
2023/12/01 09:14:23;;;;;;;65.83;58.93;;;-3.30;99.90;;;;;;5073907;28;20044;-72
2023/12/01 09:16:49;;;;;;;70.17;63.40;;;-3.30;99.90;;;;;;5058738;28;20282;-72
2023/12/01 09:19:15;;;;;;;54.63;49.07;;;-3.30;99.90;;;;;;5066898;28;20079;-72
2023/12/01 09:21:40;;;;;;;50.00;44.00;;;-3.20;99.90;;;;;;5060240;28;20051;-73
2023/12/01 09:24:06;;;;;;;72.33;66.27;;;-3.20;99.90;;;;;;5063781;28;20036;-73
2023/12/01 09:26:32;;;;;;;60.17;54.65;;;-3.20;99.90;;;;;;5059906;28;20079;-72
2023/12/01 09:28:58;;;;;;;59.47;53.37;;;-3.20;99.90;;;;;;5078250;28;20384;-72
2023/12/01 09:31:23;;;;;;;47.40;42.60;;;-3.20;99.90;;;;;;5074214;28;20127;-72
2023/12/01 09:33:50;;;;;;;48.73;42.50;;;-3.20;99.90;;;;;;5057578;28;20358;-72
2023/12/01 09:36:17;;;;;;;56.20;50.50;;;-3.10;99.90;;;;;;5088075;28;20035;-72
2023/12/01 09:38:44;;;;;;;74.13;67.97;;;-3.10;99.90;;;;;;5108227;28;20048;-72
2023/12/01 09:41:10;;;;;;;59.85;54.03;;;-3.00;99.90;;;;;;5078718;28;20142;-72
2023/12/01 09:43:37;;;;;;;61.30;55.60;;;-3.00;99.90;;;;;;5075699;28;20368;-72
2023/12/01 09:46:03;;;;;;;75.78;69.82;;;-3.00;99.90;;;;;;5075483;28;20148;-73
2023/12/01 09:48:33;;;;;;;94.75;87.95;;;-3.00;99.90;;;;;;5058534;28;20044;-73
2023/12/01 09:50:59;;;;;;;70.18;63.72;;;-3.00;99.90;;;;;;5077288;28;20051;-73
2023/12/01 09:53:25;;;;;;;68.47;62.37;;;-3.00;99.90;;;;;;5093430;28;20047;-73
2023/12/01 09:55:51;;;;;;;76.77;70.30;;;-3.00;99.90;;;;;;5063499;28;20282;-73
2023/12/01 09:58:19;;;;;;;67.90;61.90;;;-3.00;99.90;;;;;;5072295;28;20040;-73
2023/12/01 10:00:48;;;;;;;51.22;46.03;;;-3.00;99.90;;;;;;5072920;28;20386;-73
2023/12/01 10:03:13;;;;;;;57.70;51.97;;;-3.00;99.90;;;;;;5099671;28;20047;-72
2023/12/01 10:05:40;;;;;;;55.10;43.37;;;-2.90;99.90;;;;;;5088559;28;20036;-73
2023/12/01 10:08:06;;;;;;;54.30;48.85;;;-2.90;99.90;;;;;;5075964;28;20437;-72
2023/12/01 10:10:33;;;;;;;49.73;44.43;;;-2.80;99.90;;;;;;5074791;28;20043;-72
2023/12/01 10:13:04;;;;;;;58.40;52.55;;;-2.80;99.90;;;;;;5073844;28;20055;-73
2023/12/01 10:15:32;;;;;;;55.17;49.92;;;-2.70;99.90;;;;;;5068440;28;20088;-73
2023/12/01 10:18:27;;;;;;;48.13;43.08;;;-2.70;99.90;;;;;;5063133;28;20540;-73
2023/12/01 10:21:07;;;;;;;45.42;40.17;;;-2.70;99.90;;;;;;5058071;28;20052;-73
2023/12/01 10:23:33;;;;;;;44.15;38.70;;;-2.60;99.90;;;;;;5058201;28;20040;-73
2023/12/01 10:26:03;;;;;;;47.67;40.55;;;-2.60;99.90;;;;;;5074906;28;20049;-73
2023/12/01 10:28:43;;;;;;;48.72;43.33;;;-2.60;99.90;;;;;;5044133;28;20064;-75
2023/12/01 10:31:09;;;;;;;51.17;45.88;;;-2.60;99.90;;;;;;5049707;28;20067;-74
2023/12/01 10:33:36;;;;;;;63.42;57.92;;;-2.50;99.90;;;;;;5082533;28;20049;-75
2023/12/01 10:36:09;;;;;;;66.25;60.47;;;-2.50;99.90;;;;;;5049674;28;20134;-73
2023/12/01 10:38:36;;;;;;;69.65;63.53;;;-2.40;99.90;;;;;;5050660;28;20041;-75
2023/12/01 10:41:04;;;;;;;64.25;58.47;;;-2.40;99.90;;;;;;5047239;28;20532;-75
2023/12/01 10:43:30;;;;;;;77.38;71.20;;;-2.30;99.90;;;;;;5053424;28;20037;-75
2023/12/01 10:46:01;;;;;;;73.80;67.72;;;-2.30;99.90;;;;;;5080958;28;20045;-73
2023/12/01 10:48:29;;;;;;;87.13;80.43;;;-2.20;99.90;;;;;;5079286;28;20044;-74
2023/12/01 10:50:55;;;;;;;92.40;85.70;;;-2.20;99.90;;;;;;5046864;28;20672;-74
2023/12/01 10:53:24;;;;;;;80.17;73.63;;;-2.10;99.90;;;;;;5080605;28;20137;-74
2023/12/01 10:55:51;;;;;;;76.88;70.40;;;-2.10;99.90;;;;;;5049197;28;20417;-73
2023/12/01 10:58:22;;;;;;;81.90;75.60;;;-2.10;99.90;;;;;;5050177;28;20475;-75
2023/12/01 11:00:57;;;;;;;96.57;89.53;;;-2.10;99.90;;;;;;5080181;28;20034;-74
2023/12/01 11:03:28;;;;;;;92.00;84.97;;;-2.00;99.90;;;;;;5085239;28;20037;-75
2023/12/01 11:06:04;;;;;;;94.40;86.93;;;-2.00;99.90;;;;;;5066618;28;20271;-74
2023/12/01 11:09:09;;;;;;;87.38;80.82;;;-1.90;99.90;;;;;;5086931;28;20037;-74
2023/12/01 11:11:44;;;;;;;78.30;71.80;;;-1.90;99.90;;;;;;5000174;28;20041;-74
2023/12/01 11:14:18;;;;;;;78.57;72.30;;;-1.90;99.90;;;;;;5047501;28;20063;-73
2023/12/01 11:16:47;;;;;;;71.05;65.40;;;-1.80;99.90;;;;;;5074692;28;20142;-75
2023/12/01 11:19:14;;;;;;;104.15;97.22;;;-1.80;99.90;;;;;;5061830;28;20056;-74
2023/12/01 11:21:44;;;;;;;133.45;125.35;;;-1.70;99.90;;;;;;5114907;27;20071;-74
2023/12/01 11:24:31;;;;;;;126.82;118.68;;;-1.70;99.90;;;;;;5071677;28;20048;-73
2023/12/01 11:27:03;;;;;;;96.07;89.07;;;-1.70;99.90;;;;;;5076033;28;20041;-74
2023/12/01 11:29:33;;;;;;;109.57;102.43;;;-1.70;99.90;;;;;;5072606;28;20044;-74
2023/12/01 11:31:59;;;;;;;102.68;95.97;;;-1.70;99.90;;;;;;5054516;28;20047;-74
2023/12/01 11:34:25;;;;;;;119.73;112.07;;;-1.60;99.90;;;;;;5054713;28;20052;-74
2023/12/01 11:36:54;;;;;;;145.98;137.55;;;-1.60;99.90;;;;;;5072556;28;20086;-74
2023/12/01 11:39:31;;;;;;;144.32;135.85;;;-1.60;99.90;;;;;;5108540;27;20079;-74
2023/12/01 11:42:02;;;;;;;127.00;119.18;;;-1.50;99.90;;;;;;5068980;28;20052;-73
2023/12/01 11:44:37;;;;;;;260.10;245.50;;;-1.50;99.90;;;;;;5075128;28;20037;-73
2023/12/01 11:47:05;;;;;;;130.38;122.32;;;-1.40;99.90;;;;;;5058039;28;20482;-75
2023/12/01 11:49:57;;;;;;;156.77;147.60;;;-1.40;99.90;;;;;;5084118;28;20047;-73
2023/12/01 11:52:24;;;;;;;138.23;129.60;;;-1.30;99.90;;;;;;5066514;28;20051;-75
2023/12/01 11:54:50;;;;;;;150.45;141.75;;;-1.30;99.90;;;;;;5074042;28;20044;-75
2023/12/01 11:57:17;;;;;;;155.07;145.70;;;-1.30;99.90;;;;;;5092357;28;20554;-75
2023/12/01 11:59:46;;;;;;;214.57;202.93;;;-1.30;99.90;;;;;;5059146;28;20032;-75
2023/12/01 12:02:14;;;;;;;205.40;194.48;;;-1.20;99.90;;;;;;5097821;28;20043;-75
2023/12/01 12:04:40;;;;;;;197.13;186.98;;;-1.20;99.90;;;;;;5057923;28;20111;-74
2023/12/01 12:07:06;;;;;;;155.40;146.33;;;-1.20;99.90;;;;;;5057189;28;20120;-75
2023/12/01 12:09:33;;;;;;;132.20;124.05;;;-1.20;99.90;;;;;;5086626;28;20044;-74
2023/12/01 12:12:05;;;;;;;157.60;148.35;;;-1.30;99.90;;;;;;5093800;28;20502;-74
2023/12/01 12:14:32;;;;;;;178.20;168.32;;;-1.20;99.90;;;;;;5060454;28;20049;-75
2023/12/01 12:16:59;;;;;;;159.93;150.60;;;-1.20;99.90;;;;;;5054197;28;20124;-73
2023/12/01 12:19:25;;;;;;;151.82;143.02;;;-1.20;99.90;;;;;;5089355;28;20053;-74
2023/12/01 12:21:51;;;;;;;105.40;98.50;;;-1.20;99.90;;;;;;5053699;28;20051;-74
2023/12/01 12:24:21;;;;;;;149.85;140.98;;;-1.20;99.90;;;;;;5085815;28;20044;-75